createdAt,value
2022-11-27T00:03:59.531Z,4.10
2022-11-27T00:06:29.556Z,4.00
2022-11-27T00:08:58.683Z,3.90
2022-11-27T00:11:28.457Z,3.90
2022-11-27T00:13:55.766Z,3.90
2022-11-27T00:16:24.130Z,3.90
2022-11-27T00:18:51.387Z,3.90
2022-11-27T00:21:27.960Z,3.90
2022-11-27T00:23:57.286Z,3.90
2022-11-27T00:26:25.487Z,3.90
2022-11-27T00:28:52.639Z,3.90
2022-11-27T00:31:27.090Z,3.90
2022-11-27T00:34:02.658Z,4.00
2022-11-27T00:36:32.601Z,4.00
2022-11-27T00:38:59.666Z,4.00
2022-11-27T00:41:31.566Z,4.00
2022-11-27T00:43:58.783Z,4.10
2022-11-27T00:48:58.232Z,4.00
2022-11-27T00:51:26.096Z,4.00
2022-11-27T00:53:53.662Z,3.90
2022-11-27T00:56:24.443Z,3.90
2022-11-27T00:58:52.551Z,3.90
2022-11-27T01:01:27.472Z,3.90
2022-11-27T01:03:57.083Z,3.80
2022-11-27T01:06:25.410Z,3.80
2022-11-27T01:08:52.611Z,3.80
2022-11-27T01:11:29.856Z,3.90
2022-11-27T01:14:03.930Z,3.90
2022-11-27T01:16:32.776Z,3.90
2022-11-27T01:19:01.626Z,4.00
2022-11-27T01:21:32.529Z,4.00
2022-11-27T01:24:00.777Z,4.00
2022-11-27T01:26:28.188Z,4.00
2022-11-27T01:28:57.147Z,4.00
2022-11-27T01:31:31.466Z,4.00
2022-11-27T01:34:05.760Z,4.00
2022-11-27T01:36:34.186Z,3.90
2022-11-27T01:39:02.144Z,3.90
2022-11-27T01:41:39.998Z,3.90
2022-11-27T01:44:25.202Z,3.90
2022-11-27T01:47:05.926Z,3.90
2022-11-27T01:49:48.147Z,4.00
2022-11-27T01:52:32.662Z,4.00
2022-11-27T01:55:13.266Z,3.90
2022-11-27T01:57:48.761Z,3.90
2022-11-27T02:00:17.530Z,3.80
2022-11-27T02:02:46.008Z,3.70
2022-11-27T02:05:23.814Z,3.80
2022-11-27T02:07:52.545Z,3.80
2022-11-27T02:10:19.981Z,3.90
2022-11-27T02:13:07.795Z,4.00
2022-11-27T02:16:02.388Z,3.90
2022-11-27T02:19:07.674Z,3.90
2022-11-27T02:22:11.354Z,3.80
2022-11-27T02:25:15.352Z,3.80
2022-11-27T02:28:19.495Z,3.80
2022-11-27T02:31:05.076Z,3.90
2022-11-27T02:33:35.026Z,3.90
2022-11-27T02:36:10.792Z,3.90
2022-11-27T02:38:49.879Z,3.80
2022-11-27T02:41:58.019Z,3.70
2022-11-27T02:44:29.280Z,3.80
2022-11-27T02:46:56.391Z,3.80
2022-11-27T02:49:24.441Z,3.80
2022-11-27T02:51:59.247Z,3.80
2022-11-27T02:54:29.999Z,3.80
2022-11-27T02:57:00.977Z,3.80
2022-11-27T02:59:32.344Z,3.70
2022-11-27T03:02:06.696Z,3.60
2022-11-27T03:04:50.357Z,3.50
2022-11-27T03:07:28.208Z,3.40
2022-11-27T03:10:00.528Z,3.40
2022-11-27T03:12:28.132Z,3.40
2022-11-27T03:14:55.091Z,3.40
2022-11-27T03:17:53.110Z,3.40
2022-11-27T03:20:25.049Z,3.30
2022-11-27T03:22:56.248Z,3.30
2022-11-27T03:25:24.580Z,3.30
2022-11-27T03:28:05.730Z,3.20
2022-11-27T03:30:32.648Z,3.20
2022-11-27T03:33:00.826Z,3.20
2022-11-27T03:35:28.590Z,3.10
2022-11-27T03:37:56.590Z,3.20
2022-11-27T03:40:32.822Z,3.10
2022-11-27T03:43:11.365Z,3.00
2022-11-27T03:45:54.232Z,2.80
2022-11-27T03:48:48.175Z,2.80
2022-11-27T03:51:32.631Z,3.00
2022-11-27T03:54:19.196Z,3.00
2022-11-27T03:57:02.519Z,3.00
2022-11-27T03:59:34.249Z,2.90
2022-11-27T04:02:01.251Z,2.80
2022-11-27T04:04:28.118Z,2.70
2022-11-27T04:06:54.934Z,2.60
2022-11-27T04:14:16.284Z,2.40
2022-11-27T04:16:43.164Z,2.40
2022-11-27T04:19:10.161Z,2.40
2022-11-27T04:21:36.948Z,2.30
2022-11-27T04:24:04.002Z,2.30
2022-11-27T04:26:30.936Z,2.40
2022-11-27T04:28:57.709Z,2.30
2022-11-27T04:31:24.655Z,2.30
2022-11-27T04:33:51.599Z,2.40
2022-11-27T04:36:18.428Z,2.40
2022-11-27T04:38:45.243Z,2.40
2022-11-27T04:41:12.049Z,2.40
2022-11-27T04:43:38.949Z,2.30
2022-11-27T04:46:05.849Z,2.30
2022-11-27T04:48:32.717Z,2.30
2022-11-27T04:50:59.709Z,2.30
2022-11-27T04:53:26.553Z,2.30
2022-11-27T04:55:53.373Z,2.30
2022-11-27T04:58:20.495Z,2.40
2022-11-27T05:00:47.490Z,2.40
2022-11-27T05:03:14.483Z,2.40
2022-11-27T05:05:41.553Z,2.40
2022-11-27T05:08:08.378Z,2.50
2022-11-27T05:10:35.184Z,2.60
2022-11-27T05:13:02.023Z,2.70
2022-11-27T05:15:29.006Z,2.80
2022-11-27T05:17:55.773Z,2.90
2022-11-27T05:20:22.856Z,3.00
2022-11-27T05:22:49.951Z,3.00
2022-11-27T05:25:18.915Z,3.00
2022-11-27T05:30:13.318Z,2.90
2022-11-27T05:32:40.230Z,2.80
2022-11-27T05:35:07.402Z,2.80
2022-11-27T05:37:34.280Z,2.80
2022-11-27T05:40:01.065Z,2.80
2022-11-27T05:44:58.552Z,2.70
2022-11-27T05:47:25.881Z,2.70
2022-11-27T05:49:52.856Z,2.70
2022-11-27T05:52:19.783Z,2.70
2022-11-27T05:54:46.566Z,2.70
2022-11-27T05:57:13.384Z,2.80
2022-11-27T05:59:40.143Z,2.80
2022-11-27T06:02:07.132Z,2.80
2022-11-27T06:04:34.915Z,2.70
2022-11-27T06:07:01.794Z,2.80
2022-11-27T06:09:28.663Z,2.80
2022-11-27T06:11:55.623Z,2.90
2022-11-27T06:14:22.857Z,2.90
2022-11-27T06:16:49.722Z,2.90
2022-11-27T06:19:16.717Z,2.90
2022-11-27T06:21:43.583Z,2.80
2022-11-27T06:24:11.342Z,2.80
2022-11-27T06:26:38.313Z,2.80
2022-11-27T06:29:05.868Z,2.80
2022-11-27T06:31:33.815Z,2.80
2022-11-27T06:34:01.450Z,2.80
2022-11-27T06:36:32.400Z,2.80
2022-11-27T06:38:59.304Z,2.80
2022-11-27T06:41:28.632Z,2.80
2022-11-27T06:43:59.431Z,2.80
2022-11-27T06:46:27.618Z,2.70
2022-11-27T06:48:56.005Z,2.70
2022-11-27T06:51:27.335Z,2.70
2022-11-27T06:53:54.782Z,2.70
2022-11-27T06:56:25.306Z,2.70
2022-11-27T06:59:00.160Z,2.70
2022-11-27T07:01:29.244Z,2.70
2022-11-27T07:03:57.795Z,2.80
2022-11-27T07:06:27.230Z,2.80
2022-11-27T07:08:55.547Z,2.90
2022-11-27T07:11:26.610Z,3.00
2022-11-27T07:13:57.164Z,3.00
2022-11-27T07:16:25.229Z,2.90
2022-11-27T07:18:55.265Z,2.90
2022-11-27T07:21:22.856Z,3.00
2022-11-27T07:23:49.844Z,3.00
2022-11-27T07:26:22.940Z,3.10
2022-11-27T07:28:50.211Z,3.20
2022-11-27T07:31:23.939Z,3.30
2022-11-27T07:33:52.612Z,3.40
2022-11-27T07:36:29.376Z,3.40
2022-11-27T07:38:58.161Z,3.40
2022-11-27T07:41:30.582Z,3.50
2022-11-27T07:44:00.852Z,3.50
2022-11-27T07:46:27.768Z,3.50
2022-11-27T07:48:54.586Z,3.60
2022-11-27T07:51:22.777Z,3.50
2022-11-27T07:53:51.958Z,3.50
2022-11-27T07:56:19.664Z,3.60
2022-11-27T07:58:46.943Z,3.60
2022-11-27T08:01:18.351Z,3.60
2022-11-27T08:03:45.797Z,3.60
2022-11-27T08:06:31.704Z,3.60
2022-11-27T08:08:58.766Z,3.60
2022-11-27T08:11:30.077Z,3.70
2022-11-27T08:14:00.429Z,3.80
2022-11-27T08:16:28.647Z,4.00
2022-11-27T08:18:55.685Z,4.10
2022-11-27T08:21:22.664Z,4.20
2022-11-27T08:23:49.622Z,4.30
2022-11-27T08:26:16.776Z,4.40
2022-11-27T08:28:44.022Z,4.40
2022-11-27T08:31:14.028Z,4.50
2022-11-27T08:33:41.530Z,4.60
2022-11-27T08:36:13.715Z,4.70
2022-11-27T08:38:44.490Z,4.90
2022-11-27T08:41:11.304Z,5.00
2022-11-27T08:43:38.222Z,5.10
2022-11-27T08:46:06.769Z,5.10
2022-11-27T08:48:34.285Z,5.20
2022-11-27T08:51:07.626Z,5.10
2022-11-27T08:53:36.002Z,5.10
2022-11-27T08:56:25.766Z,5.10
2022-11-27T08:58:53.005Z,5.10
2022-11-27T09:01:29.923Z,5.20
2022-11-27T09:03:57.824Z,5.30
2022-11-27T09:06:28.397Z,5.40
2022-11-27T09:09:00.997Z,5.60
2022-11-27T09:11:31.763Z,5.60
2022-11-27T09:14:03.570Z,5.60
2022-11-27T09:16:31.150Z,5.50
2022-11-27T09:18:58.439Z,5.50
2022-11-27T09:21:28.186Z,5.50
2022-11-27T09:23:59.225Z,5.40
2022-11-27T09:26:28.002Z,5.40
2022-11-27T09:28:56.088Z,5.50
2022-11-27T09:31:23.548Z,5.60
2022-11-27T09:33:50.588Z,5.50
2022-11-27T09:36:23.602Z,5.40
2022-11-27T09:38:51.152Z,5.40
2022-11-27T09:41:45.910Z,5.60
2022-11-27T09:44:43.270Z,5.70
2022-11-27T09:47:42.063Z,5.70
2022-11-27T09:50:35.236Z,5.90
2022-11-27T09:53:22.014Z,5.90
2022-11-27T09:55:52.122Z,6.00
2022-11-27T09:58:47.002Z,6.10
2022-11-27T10:01:18.495Z,6.20
2022-11-27T10:03:46.527Z,6.40
2022-11-27T10:06:29.835Z,6.50
2022-11-27T10:09:02.546Z,6.70
2022-11-27T10:11:56.757Z,7.00
2022-11-27T10:14:51.684Z,7.20
2022-11-27T10:17:34.053Z,7.40
2022-11-27T10:20:28.653Z,7.30
2022-11-27T10:23:14.659Z,7.10
2022-11-27T10:25:52.275Z,7.00
2022-11-27T10:28:46.984Z,7.00
2022-11-27T10:31:41.026Z,7.10
2022-11-27T10:34:40.880Z,7.00
2022-11-27T10:37:45.795Z,7.10
2022-11-27T10:40:12.953Z,7.20
2022-11-27T10:42:43.726Z,7.40
2022-11-27T10:45:23.990Z,7.40
2022-11-27T10:47:51.074Z,7.30
2022-11-27T10:50:19.701Z,7.40
2022-11-27T10:53:09.822Z,7.20
2022-11-27T10:56:24.822Z,7.10
2022-11-27T10:59:05.175Z,7.20
2022-11-27T11:01:50.860Z,7.20
2022-11-27T11:04:41.748Z,7.20
2022-11-27T11:07:29.708Z,7.30
2022-11-27T11:09:58.050Z,7.50
2022-11-27T11:12:24.976Z,7.70
2022-11-27T11:15:00.526Z,7.60
2022-11-27T11:17:34.375Z,7.70
2022-11-27T11:20:01.481Z,7.80
2022-11-27T11:22:29.743Z,7.70
2022-11-27T11:24:56.929Z,7.80
2022-11-27T11:27:29.620Z,7.80
2022-11-27T11:30:05.643Z,7.50
2022-11-27T11:32:37.840Z,7.50
2022-11-27T11:35:37.295Z,7.40
2022-11-27T11:38:07.708Z,7.40
2022-11-27T11:40:37.072Z,7.50
2022-11-27T11:43:54.649Z,7.60
2022-11-27T11:46:26.713Z,7.80
2022-11-27T11:49:06.926Z,7.90
2022-11-27T11:52:07.565Z,7.80
2022-11-27T11:55:12.168Z,7.90
2022-11-27T11:58:10.172Z,8.00
2022-11-27T12:01:36.652Z,8.10
2022-11-27T12:04:27.082Z,8.30
2022-11-27T12:07:11.868Z,8.50
2022-11-27T12:09:56.708Z,8.30
2022-11-27T12:12:52.100Z,8.20
2022-11-27T12:15:32.244Z,8.30
2022-11-27T12:18:29.374Z,8.40
2022-11-27T12:21:22.157Z,8.40
2022-11-27T12:24:24.836Z,8.20
2022-11-27T12:27:19.688Z,8.10
2022-11-27T12:30:16.615Z,8.10
2022-11-27T12:33:14.490Z,8.00
2022-11-27T12:36:30.529Z,8.10
2022-11-27T12:39:31.487Z,8.40
2022-11-27T12:42:24.974Z,8.40
2022-11-27T12:44:54.753Z,8.40
2022-11-27T12:47:44.978Z,8.40
2022-11-27T12:50:27.292Z,8.50
2022-11-27T12:53:16.741Z,8.70
2022-11-27T12:56:28.545Z,8.90
2022-11-27T12:59:06.707Z,9.00
2022-11-27T13:02:24.556Z,9.00
2022-11-27T13:04:56.515Z,8.80
2022-11-27T13:07:30.916Z,8.60
2022-11-27T13:10:26.501Z,8.50
2022-11-27T13:13:16.791Z,8.30
2022-11-27T13:15:59.951Z,8.10
2022-11-27T13:18:41.714Z,8.10
2022-11-27T13:21:32.186Z,8.10
2022-11-27T13:24:03.486Z,8.20
2022-11-27T13:27:09.637Z,8.30
2022-11-27T13:29:44.545Z,8.30
2022-11-27T13:32:33.738Z,8.20
2022-11-27T13:35:05.268Z,8.00
2022-11-27T13:37:38.184Z,7.80
2022-11-27T13:40:12.591Z,7.70
2022-11-27T13:42:45.368Z,7.60
2022-11-27T13:45:39.325Z,7.50
2022-11-27T13:48:32.873Z,7.40
2022-11-27T13:51:00.422Z,7.40
2022-11-27T13:53:40.392Z,7.40
2022-11-27T13:56:09.675Z,7.40
2022-11-27T13:58:39.283Z,7.40
2022-11-27T14:01:22.473Z,7.50
2022-11-27T14:03:49.788Z,7.50
2022-11-27T14:06:29.387Z,7.50
2022-11-27T14:09:00.091Z,7.50
2022-11-27T14:11:38.152Z,7.60
2022-11-27T14:14:19.238Z,7.50
2022-11-27T14:17:04.985Z,7.50
2022-11-27T14:19:41.732Z,7.40
2022-11-27T14:23:10.095Z,7.40
2022-11-27T14:25:36.443Z,7.50
2022-11-27T14:28:21.937Z,7.50
2022-11-27T14:31:00.241Z,7.50
2022-11-27T14:33:31.378Z,7.50
2022-11-27T14:36:07.555Z,7.60
2022-11-27T14:38:35.702Z,7.50
2022-11-27T14:41:19.574Z,7.40
2022-11-27T14:43:46.724Z,7.30
2022-11-27T14:46:22.095Z,7.20
2022-11-27T14:48:55.405Z,7.20
2022-11-27T14:51:32.837Z,7.20
2022-11-27T14:54:10.318Z,7.20
2022-11-27T14:56:42.140Z,7.10
2022-11-27T14:59:21.271Z,7.10
2022-11-27T15:02:12.664Z,7.10
2022-11-27T15:04:42.531Z,7.10
2022-11-27T15:07:31.369Z,7.10
2022-11-27T15:10:00.319Z,7.10
2022-11-27T15:12:33.975Z,7.00
2022-11-27T15:15:15.365Z,7.00
2022-11-27T15:17:49.357Z,7.00
2022-11-27T15:20:23.588Z,7.00
2022-11-27T15:22:54.692Z,7.00
2022-11-27T15:25:44.497Z,7.00
2022-11-27T15:28:23.586Z,6.90
2022-11-27T15:30:51.279Z,6.80
2022-11-27T15:33:33.162Z,6.90
2022-11-27T15:36:21.164Z,6.90
2022-11-27T15:38:51.116Z,6.80
2022-11-27T15:41:30.876Z,6.80
2022-11-27T15:43:57.709Z,6.80
2022-11-27T15:46:34.405Z,6.80
2022-11-27T15:49:01.521Z,6.80
2022-11-27T15:51:29.175Z,6.80
2022-11-27T15:53:56.098Z,6.80
2022-11-27T15:56:23.036Z,6.80
2022-11-27T15:58:49.894Z,6.80
2022-11-27T16:01:16.910Z,6.70
2022-11-27T16:03:43.779Z,6.70
2022-11-27T16:06:10.627Z,6.70
2022-11-27T16:08:37.574Z,6.70
2022-11-27T16:11:14.372Z,6.70
2022-11-27T16:13:41.174Z,6.80
2022-11-27T16:16:09.082Z,6.80
2022-11-27T16:18:36.720Z,6.90
2022-11-27T16:21:09.991Z,6.90
2022-11-27T16:23:39.592Z,6.90
2022-11-27T16:26:07.104Z,6.90
2022-11-27T16:28:34.692Z,6.90
2022-11-27T16:31:04.249Z,6.90
2022-11-27T16:33:32.893Z,6.90
2022-11-27T16:36:15.255Z,6.80
2022-11-27T16:38:43.305Z,6.80
2022-11-27T16:41:15.791Z,6.70
2022-11-27T16:43:47.391Z,6.70
2022-11-27T16:46:16.572Z,6.60
2022-11-27T16:48:45.342Z,6.60
2022-11-27T16:51:22.694Z,6.60
2022-11-27T16:53:53.123Z,6.60
2022-11-27T16:56:23.923Z,6.50
2022-11-27T16:58:51.988Z,6.40
2022-11-27T17:01:25.483Z,6.40
2022-11-27T17:03:52.792Z,6.50
2022-11-27T17:06:29.686Z,6.50
2022-11-27T17:09:01.908Z,6.50
2022-11-27T17:11:33.941Z,6.50
2022-11-27T17:14:05.758Z,6.50
2022-11-27T17:16:33.711Z,6.50
2022-11-27T17:19:01.060Z,6.40
2022-11-27T17:21:31.327Z,6.40
2022-11-27T17:24:10.077Z,6.40
2022-11-27T17:26:44.432Z,6.40
2022-11-27T17:29:14.024Z,6.40
2022-11-27T17:31:41.176Z,6.40
2022-11-27T17:34:11.446Z,6.40
2022-11-27T17:36:38.883Z,6.40
2022-11-27T17:39:06.612Z,6.50
2022-11-27T17:41:35.031Z,6.40
2022-11-27T17:44:05.428Z,6.40
2022-11-27T17:46:35.151Z,6.50
2022-11-27T17:49:05.296Z,6.40
2022-11-27T17:51:33.662Z,6.40
2022-11-27T17:54:02.185Z,6.40
2022-11-27T17:56:29.630Z,6.50
2022-11-27T17:58:56.643Z,6.40
2022-11-27T18:01:26.424Z,6.50
2022-11-27T18:04:01.269Z,6.40
2022-11-27T18:06:28.489Z,6.40
2022-11-27T18:08:57.313Z,6.30
2022-11-27T18:11:27.849Z,6.30
2022-11-27T18:13:55.313Z,6.40
2022-11-27T18:16:29.151Z,6.40
2022-11-27T18:18:57.959Z,6.40
2022-11-27T18:21:27.292Z,6.40
2022-11-27T18:29:29.135Z,6.40
2022-11-27T18:31:56.013Z,6.40
2022-11-27T18:34:22.910Z,6.50
2022-11-27T18:36:49.866Z,6.40
2022-11-27T18:39:16.662Z,6.50
2022-11-27T18:41:43.899Z,6.50
2022-11-27T18:44:10.942Z,6.50
2022-11-27T18:46:38.346Z,6.40
2022-11-27T18:49:05.487Z,6.40
2022-11-27T18:51:32.637Z,6.50
2022-11-27T18:53:59.502Z,6.50
2022-11-27T18:56:31.790Z,6.50
2022-11-27T18:59:05.409Z,6.60
2022-11-27T19:01:40.875Z,6.70
2022-11-27T19:04:09.992Z,6.70
2022-11-27T19:06:38.062Z,6.70
2022-11-27T19:09:06.293Z,6.70
2022-11-27T19:11:34.988Z,6.70
2022-11-27T19:14:02.098Z,6.70
2022-11-27T19:16:34.517Z,6.80
2022-11-27T19:19:04.481Z,6.80
2022-11-27T19:21:33.594Z,6.80
2022-11-27T19:24:02.894Z,6.80
2022-11-27T19:26:33.505Z,6.70
2022-11-27T19:29:05.558Z,6.70
2022-11-27T19:31:37.631Z,6.70
2022-11-27T19:34:06.633Z,6.70
2022-11-27T19:36:35.934Z,6.70
2022-11-27T19:39:09.045Z,6.70
2022-11-27T19:41:35.874Z,6.70
2022-11-27T19:44:04.822Z,6.70
2022-11-27T19:46:35.228Z,6.70
2022-11-27T19:49:08.611Z,6.70
2022-11-27T19:51:38.211Z,6.70
2022-11-27T19:54:10.319Z,6.70
2022-11-27T19:56:40.118Z,6.70
2022-11-27T19:59:08.601Z,6.70
2022-11-27T20:01:37.595Z,6.70
2022-11-27T20:04:05.693Z,6.60
2022-11-27T20:06:32.670Z,6.60
2022-11-27T20:09:02.972Z,6.60
2022-11-27T20:11:34.881Z,6.70
2022-11-27T20:14:04.387Z,6.70
2022-11-27T20:16:32.681Z,6.70
2022-11-27T20:19:01.215Z,6.70
2022-11-27T20:21:28.262Z,6.60
2022-11-27T20:23:55.409Z,6.60
2022-11-27T20:26:25.611Z,6.50
2022-11-27T20:28:54.070Z,6.50
2022-11-27T20:31:28.516Z,6.50
2022-11-27T20:34:00.710Z,6.50
2022-11-27T20:36:29.868Z,6.50
2022-11-27T20:38:59.517Z,6.50
2022-11-27T20:41:26.970Z,6.50
2022-11-27T20:43:57.863Z,6.50
2022-11-27T20:46:25.712Z,6.40
2022-11-27T20:48:54.497Z,6.40
2022-11-27T20:51:27.502Z,6.50
2022-11-27T20:53:57.159Z,6.50
2022-11-27T20:56:25.035Z,6.50
2022-11-27T20:58:51.918Z,6.50
2022-11-27T21:01:34.294Z,6.50
2022-11-27T21:04:09.061Z,6.50
2022-11-27T21:06:43.426Z,6.50
2022-11-27T21:09:11.158Z,6.50
2022-11-27T21:11:38.367Z,6.50
2022-11-27T21:14:09.381Z,6.50
2022-11-27T21:16:46.103Z,6.40
2022-11-27T21:19:21.191Z,6.40
2022-11-27T21:21:48.907Z,6.40
2022-11-27T21:24:16.990Z,6.40
2022-11-27T21:26:44.628Z,6.40
2022-11-27T21:29:12.847Z,6.40
2022-11-27T21:31:46.124Z,6.50
2022-11-27T21:34:16.539Z,6.50
2022-11-27T21:36:43.702Z,6.50
2022-11-27T21:39:13.244Z,6.50
2022-11-27T21:41:40.349Z,6.50
2022-11-27T21:44:07.242Z,6.50
2022-11-27T21:46:34.225Z,6.50
2022-11-27T21:49:02.043Z,6.50
2022-11-27T21:51:29.983Z,6.40
2022-11-27T21:53:58.857Z,6.40
2022-11-27T21:56:28.523Z,6.40
2022-11-27T21:58:56.041Z,6.40
2022-11-27T22:01:25.210Z,6.30
2022-11-27T22:03:57.380Z,6.40
2022-11-27T22:06:28.782Z,6.40
2022-11-27T22:08:58.446Z,6.40
2022-11-27T22:11:28.719Z,6.30
2022-11-27T22:13:59.863Z,6.30
2022-11-27T22:16:29.423Z,6.20
2022-11-27T22:18:58.473Z,6.20
2022-11-27T22:21:27.425Z,6.20
2022-11-27T22:23:54.872Z,6.20
2022-11-27T22:26:24.031Z,6.20
2022-11-27T22:28:51.675Z,6.20
2022-11-27T22:31:29.788Z,6.20
2022-11-27T22:33:57.624Z,6.10
2022-11-27T22:36:35.297Z,6.10
2022-11-27T22:39:06.241Z,6.10
2022-11-27T22:41:36.550Z,6.10
2022-11-27T22:44:16.419Z,6.10
2022-11-27T22:46:44.563Z,6.10
2022-11-27T22:49:15.402Z,6.10
2022-11-27T22:51:42.910Z,6.10
2022-11-27T22:54:13.882Z,6.10
2022-11-27T22:56:41.274Z,6.10
2022-11-27T23:01:55.313Z,6.00
2022-11-27T23:04:22.327Z,5.90
2022-11-27T23:06:49.240Z,5.80
2022-11-27T23:09:18.218Z,5.80
2022-11-27T23:11:46.146Z,5.80
2022-11-27T23:14:13.054Z,5.80
2022-11-27T23:16:40.122Z,5.70
2022-11-27T23:19:07.156Z,5.70
2022-11-27T23:21:37.630Z,5.70
2022-11-27T23:24:06.644Z,5.70
2022-11-27T23:26:33.565Z,5.70
2022-11-27T23:29:00.514Z,5.70
2022-11-27T23:31:32.482Z,5.80
2022-11-27T23:34:01.762Z,5.80
2022-11-27T23:36:30.444Z,5.80
2022-11-27T23:39:00.978Z,5.80
2022-11-27T23:41:30.617Z,5.80
2022-11-27T23:43:58.073Z,5.90
2022-11-27T23:46:28.055Z,5.90
2022-11-27T23:48:57.306Z,5.90
2022-11-27T23:51:30.811Z,6.00
2022-11-27T23:53:58.190Z,6.00
2022-11-27T23:56:29.081Z,6.00
2022-11-27T23:58:57.174Z,6.10
